Terminal Aerodrome Forecast
Issued by NWS

Home | Current Version | Previous Version | Text Only | Print | Product List | Glossary On
Versions: 1 2 3 4 5 6 7 8 9 10 11 12 13 14 15 16 17 18 19 20 21 22 23 24 25 26 27 28 29
000
FTUS42 KILM 051400 AAB
TAFCRE
TAF AMD
KCRE 051420Z 0514/0612 22015KT 1/4SM FG VV002
      TEMPO 0514/0517 4SM BR BKN003
     FM051700 23014G24KT P6SM FEW002 SCT025 SCT050
     FM052300 36012G20KT 4SM -SHRA SCT007 OVC012
     FM060300 01015G22KT 3SM -RA BR OVC007=

USA.gov is the U.S. government's official web portal to all federal, state and local government web resources and services.